createdAt,value
2019-04-30T00:00:39.946Z,2.60
2019-04-30T00:03:18.027Z,2.50
2019-04-30T00:05:45.123Z,2.30
2019-04-30T00:08:16.025Z,2.87
2019-04-30T00:10:45.561Z,2.60
2019-04-30T00:13:20.706Z,2.47
2019-04-30T00:15:48.020Z,2.57
2019-04-30T00:18:17.852Z,2.60
2019-04-30T00:20:47.202Z,2.57
2019-04-30T00:23:18.044Z,2.83
2019-04-30T00:25:47.621Z,3.17
2019-04-30T00:28:16.958Z,2.43
2019-04-30T00:30:47.820Z,2.40
2019-04-30T00:33:22.221Z,2.60
2019-04-30T00:35:49.725Z,2.70
2019-04-30T00:38:19.388Z,3.43
2019-04-30T00:40:48.741Z,2.53
2019-04-30T00:43:18.077Z,2.60
2019-04-30T00:45:47.695Z,2.87
2019-04-30T00:48:26.839Z,3.00
2019-04-30T00:50:48.125Z,2.80
2019-04-30T00:53:17.464Z,3.50
2019-04-30T00:55:48.425Z,4.40
2019-04-30T00:58:24.981Z,3.70
2019-04-30T01:01:04.959Z,3.17
2019-04-30T01:03:32.998Z,3.30
2019-04-30T01:06:02.419Z,3.87
2019-04-30T01:08:31.843Z,3.50
2019-04-30T01:11:06.513Z,3.93
2019-04-30T01:13:32.307Z,4.20
2019-04-30T01:16:01.657Z,4.83
2019-04-30T01:18:32.134Z,4.10
2019-04-30T01:21:09.808Z,4.50
2019-04-30T01:23:35.125Z,3.97
2019-04-30T01:26:04.668Z,4.57
2019-04-30T01:28:34.245Z,4.27
2019-04-30T01:31:03.590Z,4.43
2019-04-30T01:33:34.499Z,4.47
2019-04-30T01:36:08.400Z,4.60
2019-04-30T01:38:40.316Z,4.90
2019-04-30T01:41:10.546Z,5.13
2019-04-30T01:43:39.891Z,4.93
2019-04-30T01:46:13.690Z,5.40
2019-04-30T01:48:43.723Z,5.37
2019-04-30T01:51:13.459Z,5.43
2019-04-30T01:53:43.590Z,5.83
2019-04-30T01:56:33.304Z,5.70
2019-04-30T01:59:09.715Z,6.00
2019-04-30T02:01:40.694Z,6.70
2019-04-30T02:04:10.036Z,6.80
2019-04-30T02:06:39.380Z,7.93
2019-04-30T02:09:09.178Z,7.67
2019-04-30T02:11:38.886Z,8.53
2019-04-30T02:14:09.023Z,9.60
2019-04-30T02:16:39.557Z,9.60
2019-04-30T02:19:09.249Z,8.77
2019-04-30T02:21:38.657Z,9.43
2019-04-30T02:24:08.947Z,9.67
2019-04-30T02:26:39.130Z,9.43
2019-04-30T02:29:09.189Z,10.63
2019-04-30T02:31:40.753Z,10.13
2019-04-30T02:34:11.328Z,11.27
2019-04-30T02:36:49.969Z,11.33
2019-04-30T02:39:20.344Z,9.30
2019-04-30T02:41:51.223Z,10.90
2019-04-30T02:44:21.665Z,10.33
2019-04-30T02:46:54.190Z,10.87
2019-04-30T02:49:25.846Z,10.70
2019-04-30T02:51:59.385Z,11.90
2019-04-30T02:54:30.793Z,10.23
2019-04-30T02:57:01.826Z,10.07
2019-04-30T02:59:31.173Z,11.07
2019-04-30T03:02:00.617Z,11.20
2019-04-30T03:04:30.064Z,10.23
2019-04-30T03:06:59.925Z,10.17
2019-04-30T03:09:29.824Z,11.77
2019-04-30T03:12:00.202Z,11.43
2019-04-30T03:14:30.237Z,11.60
2019-04-30T03:17:09.946Z,9.53
2019-04-30T03:19:40.385Z,11.63
2019-04-30T03:22:11.548Z,11.67
2019-04-30T03:24:42.788Z,10.50
2019-04-30T03:27:11.972Z,10.77
2019-04-30T03:29:41.325Z,11.33
2019-04-30T03:32:13.307Z,10.50
2019-04-30T03:34:42.695Z,10.50
2019-04-30T03:37:12.262Z,11.20
2019-04-30T03:39:41.608Z,10.47
2019-04-30T03:42:10.965Z,11.10
2019-04-30T03:44:40.378Z,10.47
2019-04-30T03:47:11.048Z,11.03
2019-04-30T03:49:40.541Z,11.53
2019-04-30T03:52:13.073Z,11.37
2019-04-30T03:54:41.073Z,11.57
2019-04-30T03:57:10.978Z,10.73
2019-04-30T03:59:40.530Z,11.00
2019-04-30T04:02:14.007Z,11.33
2019-04-30T04:04:49.442Z,10.87
2019-04-30T04:07:23.323Z,11.50
2019-04-30T04:10:00.300Z,10.90
2019-04-30T04:12:30.666Z,10.23
2019-04-30T04:15:03.586Z,10.43
2019-04-30T04:17:31.716Z,11.27
2019-04-30T04:20:01.251Z,11.10
2019-04-30T04:22:30.985Z,10.87
2019-04-30T04:25:00.421Z,10.17
2019-04-30T04:27:30.416Z,10.93
2019-04-30T04:30:01.054Z,11.57
2019-04-30T04:32:31.296Z,11.93
2019-04-30T04:35:00.697Z,11.40
2019-04-30T04:37:30.534Z,11.27
2019-04-30T04:39:59.976Z,10.63
2019-04-30T04:42:32.703Z,12.27
2019-04-30T04:45:00.399Z,12.67
2019-04-30T04:47:30.831Z,12.13
2019-04-30T04:50:00.940Z,11.47
2019-04-30T04:52:31.622Z,11.23
2019-04-30T04:55:01.265Z,12.53
2019-04-30T04:57:30.826Z,11.83
2019-04-30T05:00:06.734Z,11.40
2019-04-30T05:02:41.789Z,12.13
2019-04-30T05:05:11.442Z,13.23
2019-04-30T05:07:41.127Z,12.03
2019-04-30T05:10:11.291Z,11.80
2019-04-30T05:12:40.624Z,12.23
2019-04-30T05:15:10.203Z,12.00
2019-04-30T05:17:39.979Z,12.07
2019-04-30T05:20:10.264Z,11.97
2019-04-30T05:22:39.614Z,12.70
2019-04-30T05:25:10.061Z,13.13
2019-04-30T05:27:39.468Z,11.90
2019-04-30T05:30:12.061Z,13.30
2019-04-30T05:32:40.536Z,11.90
2019-04-30T05:35:10.422Z,12.37
2019-04-30T05:37:39.784Z,13.03
2019-04-30T05:40:09.660Z,13.13
2019-04-30T05:42:39.012Z,11.77
2019-04-30T05:45:09.963Z,13.80
2019-04-30T05:47:39.312Z,10.77
2019-04-30T05:50:09.307Z,11.23
2019-04-30T05:52:39.791Z,12.90
2019-04-30T05:55:09.924Z,12.77
2019-04-30T05:57:52.755Z,13.03
2019-04-30T06:00:11.352Z,12.90
2019-04-30T06:02:40.863Z,12.87
2019-04-30T06:05:10.824Z,13.00
2019-04-30T06:07:40.178Z,13.40
2019-04-30T06:10:20.579Z,12.73
2019-04-30T06:13:09.462Z,12.97
2019-04-30T06:15:40.465Z,13.03
2019-04-30T06:18:13.530Z,13.90
2019-04-30T06:20:40.975Z,13.07
2019-04-30T06:23:10.327Z,13.07
2019-04-30T06:25:55.703Z,13.70
2019-04-30T06:28:11.417Z,12.80
2019-04-30T06:30:41.470Z,12.77
2019-04-30T06:33:11.756Z,12.90
2019-04-30T06:35:41.404Z,14.70
2019-04-30T06:38:10.753Z,14.37
2019-04-30T06:40:40.099Z,13.30
2019-04-30T06:43:10.151Z,13.13
2019-04-30T06:45:39.645Z,14.50
2019-04-30T06:48:09.799Z,13.77
2019-04-30T06:50:39.415Z,12.57
2019-04-30T06:53:09.331Z,13.80
2019-04-30T06:55:39.868Z,12.83
2019-04-30T06:58:15.169Z,13.00
2019-04-30T07:00:40.655Z,12.97
2019-04-30T07:03:10.190Z,13.97
2019-04-30T07:05:39.546Z,12.10
2019-04-30T07:08:38.829Z,13.87
2019-04-30T07:11:15.929Z,12.50
2019-04-30T07:13:46.925Z,12.37
2019-04-30T07:16:16.275Z,14.00
2019-04-30T07:18:46.502Z,12.37
2019-04-30T07:21:15.917Z,11.50
2019-04-30T07:23:45.265Z,14.23
2019-04-30T07:26:19.793Z,12.97
2019-04-30T07:28:51.781Z,11.73
2019-04-30T07:31:18.991Z,12.30
2019-04-30T07:33:51.503Z,13.03
2019-04-30T07:36:19.657Z,11.73
2019-04-30T07:38:54.385Z,10.53
2019-04-30T07:41:20.159Z,12.03
2019-04-30T07:43:49.586Z,11.67
2019-04-30T07:46:21.899Z,11.43
2019-04-30T07:48:51.244Z,11.03
2019-04-30T07:51:21.794Z,10.37
2019-04-30T07:53:51.655Z,11.20
2019-04-30T07:56:28.043Z,11.70
2019-04-30T07:58:52.082Z,10.73
2019-04-30T08:01:21.421Z,10.37
2019-04-30T08:03:52.791Z,9.77
2019-04-30T08:06:22.947Z,10.13
2019-04-30T08:08:57.243Z,11.10
2019-04-30T08:11:26.316Z,10.33
2019-04-30T08:13:54.843Z,10.17
2019-04-30T08:16:24.151Z,10.30
2019-04-30T08:18:53.505Z,10.80
2019-04-30T08:21:22.847Z,9.73
2019-04-30T08:23:52.198Z,10.30
2019-04-30T08:26:21.544Z,9.93
2019-04-30T08:28:51.267Z,11.30
2019-04-30T08:31:20.616Z,11.40
2019-04-30T08:33:49.967Z,9.93
2019-04-30T08:36:19.769Z,11.63
2019-04-30T08:38:49.623Z,10.50
2019-04-30T08:41:19.385Z,12.13
2019-04-30T08:43:49.702Z,11.17
2019-04-30T08:46:19.299Z,11.10
2019-04-30T08:48:51.673Z,12.13
2019-04-30T08:51:20.111Z,10.70
2019-04-30T08:53:49.747Z,11.80
2019-04-30T08:56:21.713Z,10.93
2019-04-30T08:58:50.168Z,10.77
2019-04-30T09:01:19.840Z,12.57
2019-04-30T09:03:51.197Z,10.73
2019-04-30T09:06:21.844Z,12.30
2019-04-30T09:08:51.871Z,11.63
2019-04-30T09:11:27.343Z,11.30
2019-04-30T09:13:52.282Z,10.37
2019-04-30T09:16:21.627Z,11.07
2019-04-30T09:18:50.974Z,11.80
2019-04-30T09:21:20.316Z,10.93
2019-04-30T09:23:52.697Z,11.40
2019-04-30T09:26:21.221Z,11.80
2019-04-30T09:28:50.635Z,10.77
2019-04-30T09:31:19.999Z,10.17
2019-04-30T09:33:49.440Z,11.50
2019-04-30T09:36:20.891Z,10.37
2019-04-30T09:38:50.362Z,9.43
2019-04-30T09:41:19.707Z,10.63
2019-04-30T09:43:49.484Z,10.00
2019-04-30T09:46:26.318Z,11.17
2019-04-30T09:48:50.817Z,11.63
2019-04-30T09:51:23.936Z,9.83
2019-04-30T09:53:59.119Z,10.27
2019-04-30T09:56:22.504Z,9.43
2019-04-30T09:58:51.857Z,10.73
2019-04-30T10:01:22.137Z,11.27
2019-04-30T10:03:52.052Z,10.50
2019-04-30T10:06:22.295Z,11.03
2019-04-30T10:08:51.982Z,10.27
2019-04-30T10:11:22.975Z,10.53
2019-04-30T10:13:52.319Z,11.00
2019-04-30T10:16:25.770Z,10.07
2019-04-30T10:18:55.115Z,10.60
2019-04-30T10:21:24.459Z,10.93
2019-04-30T10:23:53.808Z,10.43
2019-04-30T10:26:23.699Z,11.10
2019-04-30T10:28:54.061Z,9.53
2019-04-30T10:31:23.411Z,8.43
2019-04-30T10:33:52.754Z,9.03
2019-04-30T10:36:22.266Z,9.67
2019-04-30T10:38:51.606Z,9.43
2019-04-30T10:41:21.031Z,9.23
2019-04-30T10:43:50.447Z,11.17
2019-04-30T10:46:19.866Z,11.80
2019-04-30T10:48:49.397Z,11.57
2019-04-30T10:51:18.973Z,11.87
2019-04-30T10:53:48.634Z,11.17
2019-04-30T10:56:19.484Z,11.10
2019-04-30T10:58:48.833Z,11.13
2019-04-30T11:01:19.279Z,10.33
2019-04-30T11:03:48.847Z,12.07
2019-04-30T11:06:19.158Z,11.67
2019-04-30T11:08:48.617Z,12.07
2019-04-30T11:11:18.121Z,10.57
2019-04-30T11:13:47.469Z,10.77
2019-04-30T11:16:18.756Z,10.80
2019-04-30T11:18:48.096Z,11.87
2019-04-30T11:21:19.496Z,11.60
2019-04-30T11:23:49.409Z,13.10
2019-04-30T11:26:19.511Z,11.40
2019-04-30T11:28:49.593Z,10.60
2019-04-30T11:31:23.485Z,10.37
2019-04-30T11:33:55.858Z,9.67
2019-04-30T11:36:29.161Z,10.90
2019-04-30T11:38:58.744Z,11.33
2019-04-30T11:41:32.945Z,10.67
2019-04-30T11:43:59.541Z,11.23
2019-04-30T11:46:54.110Z,10.70
2019-04-30T11:49:23.457Z,12.77
2019-04-30T11:51:52.800Z,10.57
2019-04-30T11:54:22.150Z,9.80
2019-04-30T11:56:51.562Z,10.17
2019-04-30T11:59:20.917Z,11.40
2019-04-30T12:01:51.911Z,10.47
2019-04-30T12:04:21.254Z,10.60
2019-04-30T12:06:51.471Z,9.73
2019-04-30T12:09:28.525Z,11.37
2019-04-30T12:11:58.947Z,11.40
2019-04-30T12:14:29.710Z,12.83
2019-04-30T12:16:59.122Z,11.07
2019-04-30T12:19:28.694Z,10.97
2019-04-30T12:21:58.095Z,12.27
2019-04-30T12:24:30.258Z,11.57
2019-04-30T12:26:58.511Z,11.10
2019-04-30T12:29:29.139Z,10.67
2019-04-30T12:31:58.595Z,10.57
2019-04-30T12:34:28.716Z,11.50
2019-04-30T12:36:59.627Z,11.43
2019-04-30T12:39:30.107Z,11.40
2019-04-30T12:42:01.962Z,10.40
2019-04-30T12:44:30.649Z,11.03
2019-04-30T12:47:00.037Z,10.77
2019-04-30T12:49:31.195Z,11.50
2019-04-30T12:52:05.130Z,10.23
2019-04-30T12:54:39.175Z,10.33
2019-04-30T12:57:13.306Z,9.87
2019-04-30T12:59:42.655Z,9.50
2019-04-30T13:02:12.438Z,8.63
2019-04-30T13:04:41.782Z,8.63
2019-04-30T13:07:11.915Z,9.67
2019-04-30T13:09:42.492Z,8.67
2019-04-30T13:12:12.717Z,9.73
2019-04-30T13:14:51.486Z,9.37
2019-04-30T13:17:13.599Z,9.13
2019-04-30T13:19:42.942Z,9.13
2019-04-30T13:22:12.283Z,9.77
2019-04-30T13:24:41.701Z,9.17
2019-04-30T13:27:11.147Z,9.80
2019-04-30T13:29:54.136Z,9.27
2019-04-30T13:32:30.211Z,9.60
2019-04-30T13:34:56.485Z,9.40
2019-04-30T13:37:29.034Z,9.23
2019-04-30T13:40:06.083Z,9.43
2019-04-30T13:42:39.469Z,9.70
2019-04-30T13:45:09.259Z,9.37
2019-04-30T13:47:39.116Z,9.03
2019-04-30T13:50:09.420Z,8.93
2019-04-30T13:52:39.039Z,10.03
2019-04-30T13:55:10.899Z,9.73
2019-04-30T13:57:40.168Z,10.43
2019-04-30T14:00:13.863Z,9.67
2019-04-30T14:02:44.987Z,9.13
2019-04-30T14:05:16.422Z,9.43
2019-04-30T14:07:50.516Z,9.77
2019-04-30T14:10:19.860Z,10.23
2019-04-30T14:12:51.118Z,10.40
2019-04-30T14:15:20.679Z,10.27
2019-04-30T14:17:50.095Z,9.83
2019-04-30T14:20:19.511Z,10.47
2019-04-30T14:22:48.850Z,9.67
2019-04-30T14:25:18.601Z,10.17
2019-04-30T14:27:52.144Z,9.83
2019-04-30T14:30:19.797Z,9.67
2019-04-30T14:32:50.783Z,9.60
2019-04-30T14:35:20.358Z,10.23
2019-04-30T14:37:49.805Z,11.10
2019-04-30T14:40:20.483Z,9.87
2019-04-30T14:42:52.052Z,10.47
2019-04-30T14:45:23.649Z,9.63
2019-04-30T14:48:11.593Z,10.10
2019-04-30T14:50:41.337Z,9.43
2019-04-30T14:53:18.045Z,9.53
2019-04-30T14:56:08.884Z,9.23
2019-04-30T14:58:33.744Z,8.90
2019-04-30T15:01:04.742Z,9.60
2019-04-30T15:03:39.384Z,9.73
2019-04-30T15:06:08.784Z,9.47
2019-04-30T15:08:39.377Z,9.80
2019-04-30T15:11:09.042Z,10.57
2019-04-30T15:13:39.364Z,8.93
2019-04-30T15:16:08.871Z,8.80
2019-04-30T15:18:38.860Z,9.30
2019-04-30T15:21:09.591Z,9.23
2019-04-30T15:23:43.277Z,9.53
2019-04-30T15:26:22.307Z,8.97
2019-04-30T15:28:43.693Z,9.27
2019-04-30T15:31:13.053Z,9.70
2019-04-30T15:33:44.022Z,9.53
2019-04-30T15:36:13.361Z,9.83
2019-04-30T15:38:55.993Z,9.37
2019-04-30T15:41:25.402Z,9.57
2019-04-30T15:43:54.745Z,9.50
2019-04-30T15:46:24.095Z,9.33
2019-04-30T15:48:53.448Z,9.03
2019-04-30T15:51:22.795Z,8.13
2019-04-30T15:53:52.138Z,9.03
2019-04-30T15:56:21.479Z,8.30
2019-04-30T15:59:09.034Z,8.57
2019-04-30T16:01:40.334Z,8.53
2019-04-30T16:04:11.347Z,8.83
2019-04-30T16:06:40.693Z,8.27
2019-04-30T16:09:12.417Z,9.23
2019-04-30T16:11:55.656Z,8.37
2019-04-30T16:14:29.557Z,8.33
2019-04-30T16:17:03.436Z,8.57
2019-04-30T16:19:32.781Z,9.33
2019-04-30T16:22:02.136Z,10.43
2019-04-30T16:24:31.627Z,10.43
2019-04-30T16:27:01.042Z,10.13
2019-04-30T16:29:30.379Z,9.90
2019-04-30T16:31:59.798Z,8.67
2019-04-30T16:34:30.472Z,9.00
2019-04-30T16:36:59.871Z,11.83
2019-04-30T16:39:29.666Z,9.73
2019-04-30T16:41:59.343Z,9.23
2019-04-30T16:44:28.739Z,9.20
2019-04-30T16:46:59.636Z,9.43
2019-04-30T16:49:29.125Z,10.43
2019-04-30T16:52:01.178Z,9.27
2019-04-30T16:54:29.569Z,10.43
2019-04-30T16:57:04.072Z,10.07
2019-04-30T16:59:38.929Z,7.97
2019-04-30T17:02:09.408Z,9.47
2019-04-30T17:04:49.597Z,9.53
2019-04-30T17:07:29.483Z,8.83
2019-04-30T17:10:03.120Z,9.53
2019-04-30T17:12:34.099Z,8.67
2019-04-30T17:15:15.057Z,8.10
2019-04-30T17:17:44.398Z,8.33
2019-04-30T17:20:14.562Z,8.13
2019-04-30T17:22:43.913Z,8.10
2019-04-30T17:25:13.957Z,8.63
2019-04-30T17:27:43.298Z,7.73
2019-04-30T17:30:14.146Z,8.07
2019-04-30T17:32:43.537Z,8.03
2019-04-30T17:35:13.290Z,8.27
2019-04-30T17:37:42.635Z,8.33
2019-04-30T17:40:12.486Z,8.97
2019-04-30T17:42:41.830Z,7.73
2019-04-30T17:45:12.377Z,7.93
2019-04-30T17:47:41.726Z,8.73
2019-04-30T17:50:11.892Z,8.13
2019-04-30T17:52:41.389Z,7.70
2019-04-30T17:55:11.055Z,8.17
2019-04-30T17:57:40.508Z,8.63
2019-04-30T18:00:18.718Z,7.60
2019-04-30T18:02:43.778Z,8.03
2019-04-30T18:05:13.458Z,7.30
2019-04-30T18:07:42.896Z,8.27
2019-04-30T18:10:14.457Z,7.30
2019-04-30T18:12:43.798Z,7.47
2019-04-30T18:15:16.611Z,7.70
2019-04-30T18:17:47.592Z,9.00
2019-04-30T18:20:19.240Z,8.40
2019-04-30T18:23:06.285Z,8.50
2019-04-30T18:25:43.003Z,8.20
2019-04-30T18:28:12.345Z,8.27
2019-04-30T18:30:42.164Z,8.20
2019-04-30T18:33:11.510Z,7.53
2019-04-30T18:35:40.850Z,7.80
2019-04-30T18:38:10.350Z,7.80
2019-04-30T18:40:39.962Z,7.60
2019-04-30T18:43:09.589Z,8.47
2019-04-30T18:45:39.581Z,8.93
2019-04-30T18:48:09.688Z,8.13
2019-04-30T18:50:39.279Z,8.87
2019-04-30T18:53:13.147Z,8.40
2019-04-30T18:55:42.487Z,8.30
2019-04-30T18:58:11.826Z,8.27
2019-04-30T19:00:42.821Z,8.57
2019-04-30T19:03:12.701Z,8.40
2019-04-30T19:05:43.668Z,9.27
2019-04-30T19:08:19.470Z,9.87
2019-04-30T19:11:05.314Z,9.07
2019-04-30T19:13:52.350Z,8.53
2019-04-30T19:16:32.715Z,8.10
2019-04-30T19:19:12.887Z,8.70
2019-04-30T19:21:42.324Z,9.10
2019-04-30T19:24:11.675Z,8.77
2019-04-30T19:26:41.019Z,8.87
2019-04-30T19:29:10.363Z,8.47
2019-04-30T19:31:40.277Z,7.97
2019-04-30T19:34:09.802Z,8.50
2019-04-30T19:36:40.707Z,8.63
2019-04-30T19:39:11.749Z,8.03
2019-04-30T19:41:41.156Z,9.87
2019-04-30T19:44:10.499Z,9.00
2019-04-30T19:46:39.843Z,8.83
2019-04-30T19:49:10.355Z,7.77
2019-04-30T19:51:40.311Z,7.67
2019-04-30T19:54:11.333Z,7.70
2019-04-30T19:56:40.828Z,7.60
2019-04-30T19:59:10.414Z,7.67
2019-04-30T20:01:39.761Z,7.13
2019-04-30T20:04:09.856Z,8.03
2019-04-30T20:06:39.263Z,9.20
2019-04-30T20:09:09.141Z,8.63
2019-04-30T20:11:40.178Z,7.63
2019-04-30T20:14:10.442Z,7.20
2019-04-30T20:16:40.396Z,7.70
2019-04-30T20:19:09.810Z,7.00
2019-04-30T20:21:48.148Z,7.23
2019-04-30T20:24:10.289Z,6.93
2019-04-30T20:26:39.642Z,7.43
2019-04-30T20:29:09.053Z,7.23
2019-04-30T20:31:38.625Z,6.73
2019-04-30T20:34:09.210Z,7.33
2019-04-30T20:36:38.957Z,7.97
2019-04-30T20:39:10.487Z,7.87
2019-04-30T20:41:39.831Z,6.90
2019-04-30T20:44:10.591Z,6.70
2019-04-30T20:46:40.002Z,7.47
2019-04-30T20:49:09.393Z,6.70
2019-04-30T20:51:40.220Z,6.97
2019-04-30T20:54:09.814Z,6.30
2019-04-30T20:56:39.152Z,6.37
2019-04-30T20:59:10.711Z,6.77
2019-04-30T21:01:39.589Z,6.33
2019-04-30T21:04:08.955Z,8.23
2019-04-30T21:06:39.528Z,6.70
2019-04-30T21:09:09.282Z,6.33
2019-04-30T21:11:40.396Z,6.90
2019-04-30T21:14:11.177Z,6.50
2019-04-30T21:16:40.527Z,6.83
2019-04-30T21:19:09.874Z,7.10
2019-04-30T21:21:39.214Z,7.37
2019-04-30T21:24:08.569Z,8.17
2019-04-30T21:26:37.930Z,7.40
2019-04-30T21:31:45.710Z,8.10
2019-04-30T21:34:25.711Z,8.37
2019-04-30T21:34:41.297Z,7.80
2019-04-30T21:36:55.052Z,8.13
2019-04-30T21:39:24.395Z,6.83
2019-04-30T21:41:53.736Z,8.50
2019-04-30T21:44:23.086Z,7.40
2019-04-30T21:46:52.431Z,8.23
2019-04-30T21:49:21.771Z,8.97
2019-04-30T21:51:51.119Z,9.77
2019-04-30T21:54:20.461Z,7.97
2019-04-30T21:56:49.820Z,7.90
2019-04-30T21:59:24.500Z,8.37
2019-04-30T22:01:50.250Z,7.40
2019-04-30T22:04:19.589Z,7.80
2019-04-30T22:06:49.506Z,8.23
2019-04-30T22:09:19.348Z,7.30
2019-04-30T22:11:49.380Z,8.10
2019-04-30T22:14:19.084Z,7.40
2019-04-30T22:16:49.405Z,7.17
2019-04-30T22:19:18.875Z,8.17
2019-04-30T22:21:49.597Z,7.90
2019-04-30T22:24:19.284Z,7.70
2019-04-30T22:26:48.634Z,7.83
2019-04-30T22:29:19.169Z,8.63
2019-04-30T22:31:49.446Z,7.37
2019-04-30T22:34:19.019Z,9.03
2019-04-30T22:36:48.999Z,8.13
2019-04-30T22:39:20.147Z,7.20
2019-04-30T22:41:49.486Z,8.13
2019-04-30T22:44:18.842Z,7.47
2019-04-30T22:46:49.247Z,7.67
2019-04-30T22:49:18.678Z,7.63
2019-04-30T22:51:48.026Z,8.40
2019-04-30T22:54:17.371Z,7.90
2019-04-30T22:56:46.717Z,8.60
2019-04-30T22:59:16.058Z,7.57
2019-04-30T23:01:56.012Z,8.43
2019-04-30T23:04:26.994Z,7.50
2019-04-30T23:06:56.342Z,8.00
2019-04-30T23:09:25.684Z,7.67
2019-04-30T23:11:55.044Z,8.43
2019-04-30T23:14:24.391Z,7.70
2019-04-30T23:16:53.747Z,8.20
2019-04-30T23:19:23.100Z,7.97
2019-04-30T23:21:52.777Z,7.50
2019-04-30T23:24:22.106Z,7.33
2019-04-30T23:26:51.468Z,7.37
2019-04-30T23:29:20.808Z,7.83
2019-04-30T23:31:50.174Z,7.47
2019-04-30T23:34:19.548Z,7.40
2019-04-30T23:36:48.958Z,8.27
2019-04-30T23:39:18.372Z,7.77
2019-04-30T23:41:47.742Z,8.60
2019-04-30T23:44:17.061Z,7.73
2019-04-30T23:46:46.463Z,8.17
2019-04-30T23:49:15.809Z,9.07
2019-04-30T23:51:45.153Z,7.43
2019-04-30T23:54:14.485Z,8.20
2019-04-30T23:56:43.821Z,8.00
2019-04-30T23:59:13.329Z,7.60
